Station Historical Data
Daily Summary for January 31, 2017 Units:  Metric    English   Both
Next Day »
Daily Weekly Monthly Yearly Custom
  High: Low: Average:
Temperature: 15.7 °C 6.2 °C 9.7 °C
Dew Point: 5.3 °C -2.4 °C 0.9 °C
Humidity: 71% 34% 55%
Wind Speed: 29km/h 0km/h 5.1km/h
Wind Gust: 33.8km/h - -
Wind- - ESE
Pressure: 1023.9 hPa 1019.2 hPa -
Precipitation: 0 mm    
Historical Graphs
 
 
Tabular Data for January 31, 2017
Time Temperature Dew Point Pressure Wind Wind Speed Wind Gust Humidity Rainfall Rate (Hourly) solar Conditions
00:01 7.8 °C 0.3 °C 1023.9 hPa East 1.6 km/h 24.1 km/h 59% 0 mm 0.00 W/m2
00:06 7.8 °C 0.3 °C 1023.9 hPa Calm   12.9 km/h 59% 0 mm 0.00 W/m2
00:11 7.8 °C 0.6 °C 1023.9 hPa Calm   19.3 km/h 60% 0 mm 0.00 W/m2
00:16 7.8 °C 0.5 °C 1023.9 hPa Calm   30.6 km/h 60% 0 mm 0.00 W/m2
00:21 7.8 °C 0.7 °C 1023.9 hPa East 9.7 km/h 19.3 km/h 61% 0 mm 0.00 W/m2
00:26 7.7 °C 0 °C 1023.6 hPa East 6.4 km/h 8 km/h 58% 0 mm 0.00 W/m2
00:31 7.7 °C 0.2 °C 1023.6 hPa East 8 km/h 12.9 km/h 59% 0 mm 0.00 W/m2
00:36 7.7 °C 0.2 °C 1023.6 hPa Calm   25.7 km/h 59% 0 mm 0.00 W/m2
00:41 7.8 °C 0.1 °C 1023.6 hPa East 8 km/h 30.6 km/h 58% 0 mm 0.00 W/m2
00:46 7.8 °C -0.4 °C 1023.6 hPa ESE 3.2 km/h 25.7 km/h 56% 0 mm 0.00 W/m2
00:51 7.9 °C 0.2 °C 1023.6 hPa Calm   29 km/h 58% 0 mm 0.00 W/m2
00:56 8 °C 0 °C 1023.6 hPa ESE 24.1 km/h 29 km/h 57% 0 mm 0.00 W/m2
01:01 8 °C 0 °C 1023.6 hPa East 17.7 km/h 30.6 km/h 57% 0 mm 0.00 W/m2
01:06 8.1 °C -0.2 °C 1023.6 hPa East 9.7 km/h 9.7 km/h 56% 0 mm 0.00 W/m2
01:11 8.1 °C 0.1 °C 1023.2 hPa East 20.9 km/h 30.6 km/h 57% 0 mm 0.00 W/m2
01:16 8 °C 0 °C 1023.2 hPa ESE 12.9 km/h 33.8 km/h 57% 0 mm 0.00 W/m2
01:21 7.9 °C -0.6 °C 1023.6 hPa ESE 17.7 km/h 29 km/h 55% 0 mm 0.00 W/m2
01:26 7.9 °C -0.3 °C 1023.6 hPa East 6.4 km/h 6.4 km/h 56% 0 mm 0.00 W/m2
01:31 7.9 °C -0.6 °C 1023.2 hPa East 9.7 km/h 29 km/h 55% 0 mm 0.00 W/m2
01:36 7.9 °C -0.3 °C 1023.2 hPa ESE 3.2 km/h 27.4 km/h 56% 0 mm 0.00 W/m2
01:41 7.8 °C -0.4 °C 1023.2 hPa East 19.3 km/h 19.3 km/h 56% 0 mm 0.00 W/m2
01:46 7.8 °C -0.6 °C 1023.2 hPa ENE 6.4 km/h 30.6 km/h 55% 0 mm 0.00 W/m2
01:51 7.8 °C -0.4 °C 1023.2 hPa East 6.4 km/h 25.7 km/h 56% 0 mm 0.00 W/m2
01:56 7.7 °C -0.7 °C 1023.2 hPa ESE 9.7 km/h 29 km/h 55% 0 mm 0.00 W/m2
02:01 7.7 °C -1.1 °C 1023.2 hPa East 24.1 km/h 30.6 km/h 54% 0 mm 0.00 W/m2
02:06 7.7 °C -0.8 °C 1023.2 hPa ESE 12.9 km/h 12.9 km/h 55% 0 mm 0.00 W/m2
02:11 7.7 °C -0.8 °C 1023.6 hPa East 19.3 km/h 24.1 km/h 55% 0 mm 0.00 W/m2
02:16 7.7 °C -0.6 °C 1023.6 hPa ESE 22.5 km/h 27.4 km/h 56% 0 mm 0.00 W/m2
02:21 7.6 °C -0.7 °C 1023.6 hPa ESE 14.5 km/h 14.5 km/h 56% 0 mm 0.00 W/m2
02:26 7.6 °C -0.9 °C 1023.6 hPa SE 9.7 km/h 22.5 km/h 55% 0 mm 0.00 W/m2
02:31 7.6 °C -0.9 °C 1023.6 hPa ESE 8 km/h 20.9 km/h 55% 0 mm 0.00 W/m2
02:36 7.5 °C -1.4 °C 1023.6 hPa East 20.9 km/h 22.5 km/h 53% 0 mm 0.00 W/m2
02:41 7.5 °C -0.9 °C 1023.6 hPa Calm   20.9 km/h 55% 0 mm 0.00 W/m2
02:46 7.4 °C -1 °C 1023.6 hPa Calm   24.1 km/h 55% 0 mm 0.00 W/m2
02:51 7.4 °C -0.8 °C 1023.6 hPa ESE 1.6 km/h 19.3 km/h 56% 0 mm 0.00 W/m2
02:56 7.3 °C -0.8 °C 1023.6 hPa Calm   20.9 km/h 56% 0 mm 0.00 W/m2
03:01 7.3 °C -1.2 °C 1023.6 hPa Calm   20.9 km/h 55% 0 mm 0.00 W/m2
03:06 7.2 °C -0.9 °C 1023.2 hPa East 1.6 km/h 3.2 km/h 56% 0 mm 0.00 W/m2
03:11 7.2 °C -0.8 °C 1023.2 hPa ESE 14.5 km/h 27.4 km/h 57% 0 mm 0.00 W/m2
03:16 7.2 °C -1 °C 1023.2 hPa ESE 20.9 km/h 22.5 km/h 56% 0 mm 0.00 W/m2
03:21 7.1 °C -1.1 °C 1022.9 hPa East 6.4 km/h 8 km/h 56% 0 mm 0.00 W/m2
03:26 7.1 °C -0.9 °C 1022.9 hPa ESE 11.3 km/h 24.1 km/h 57% 0 mm 0.00 W/m2
03:31 6.9 °C -1 °C 1022.6 hPa East 12.9 km/h 30.6 km/h 57% 0 mm 0.00 W/m2
03:36 6.9 °C -1 °C 1022.6 hPa ESE 8 km/h 24.1 km/h 57% 0 mm 0.00 W/m2
03:41 6.9 °C -1.1 °C 1022.6 hPa ESE 17.7 km/h 24.1 km/h 57% 0 mm 0.00 W/m2
03:46 6.8 °C -0.8 °C 1022.6 hPa East 6.4 km/h 11.3 km/h 58% 0 mm 0.00 W/m2
03:51 6.8 °C -1.1 °C 1022.6 hPa ESE 22.5 km/h 25.7 km/h 57% 0 mm 0.00 W/m2
03:56 6.7 °C -1.7 °C 1022.6 hPa ESE 11.3 km/h 29 km/h 55% 0 mm 0.00 W/m2
04:01 6.8 °C -1.1 °C 1022.6 hPa East 9.7 km/h 9.7 km/h 57% 0 mm 0.00 W/m2
04:06 6.8 °C -1.4 °C 1022.6 hPa ESE 14.5 km/h 29 km/h 56% 0 mm 0.00 W/m2
04:11 6.8 °C -1.1 °C 1022.6 hPa ESE 9.7 km/h 24.1 km/h 57% 0 mm 0.00 W/m2
04:16 6.8 °C -1.6 °C 1022.6 hPa East 24.1 km/h 24.1 km/h 55% 0 mm 0.00 W/m2
04:21 6.8 °C -1.3 °C 1022.6 hPa ESE 12.9 km/h 12.9 km/h 56% 0 mm 0.00 W/m2
04:26 6.8 °C -1.3 °C 1022.6 hPa ESE 9.7 km/h 17.7 km/h 56% 0 mm 0.00 W/m2
04:31 6.8 °C -1.3 °C 1022.6 hPa East 14.5 km/h 16.1 km/h 56% 0 mm 0.00 W/m2
04:36 6.8 °C -1.1 °C 1022.6 hPa East 8 km/h 17.7 km/h 57% 0 mm 0.00 W/m2
04:41 6.8 °C -1.4 °C 1022.6 hPa ESE 12.9 km/h 20.9 km/h 56% 0 mm 0.00 W/m2
04:46 6.8 °C -1.1 °C 1022.6 hPa East 14.5 km/h 24.1 km/h 57% 0 mm 0.00 W/m2
04:51 6.8 °C -1.1 °C 1022.6 hPa ESE 11.3 km/h 14.5 km/h 57% 0 mm 0.00 W/m2
04:56 6.8 °C -1.4 °C 1022.6 hPa East 6.4 km/h 19.3 km/h 56% 0 mm 0.00 W/m2
05:01 6.7 °C -1.4 °C 1022.6 hPa ESE 20.9 km/h 20.9 km/h 56% 0 mm 0.00 W/m2
05:06 6.7 °C -1.7 °C 1022.6 hPa ESE 11.3 km/h 20.9 km/h 55% 0 mm 0.00 W/m2
05:11 6.7 °C -1.7 °C 1022.6 hPa East 14.5 km/h 25.7 km/h 55% 0 mm 0.00 W/m2
05:21 6.7 °C -1.2 °C 1022.6 hPa ESE 9.7 km/h 19.3 km/h 57% 0 mm 0.00 W/m2
05:26 6.7 °C -1.7 °C 1022.2 hPa East 11.3 km/h 20.9 km/h 55% 0 mm 0.00 W/m2
05:32 6.7 °C -1.5 °C 1022.6 hPa East 12.9 km/h 17.7 km/h 56% 0 mm 0.00 W/m2
05:37 6.6 °C -1.6 °C 1022.6 hPa ESE 8 km/h 17.7 km/h 56% 0 mm 0.00 W/m2
05:42 6.6 °C -1.6 °C 1022.2 hPa ESE 12.9 km/h 20.9 km/h 56% 0 mm 0.00 W/m2
05:47 6.6 °C -1.6 °C 1022.2 hPa East 20.9 km/h 29 km/h 56% 0 mm 0.00 W/m2
05:52 6.5 °C -1.4 °C 1022.2 hPa ESE 8 km/h 27.4 km/h 57% 0 mm 0.00 W/m2
05:57 6.4 °C -1.7 °C 1022.2 hPa ESE 14.5 km/h 29 km/h 56% 0 mm 0.00 W/m2
06:02 6.4 °C -1.2 °C 1022.2 hPa ESE 19.3 km/h 20.9 km/h 58% 0 mm 0.00 W/m2
06:07 6.4 °C -1.7 °C 1022.2 hPa ESE 24.1 km/h 25.7 km/h 56% 0 mm 0.00 W/m2
06:12 6.3 °C -1.8 °C 1022.2 hPa ESE 14.5 km/h 22.5 km/h 56% 0 mm 0.00 W/m2
06:17 6.3 °C -1.6 °C 1022.2 hPa East 9.7 km/h 19.3 km/h 57% 0 mm 0.00 W/m2
06:22 6.3 °C -1.8 °C 1022.2 hPa East 20.9 km/h 30.6 km/h 56% 0 mm 0.00 W/m2
06:27 6.3 °C -2.1 °C 1022.2 hPa ESE 12.9 km/h 19.3 km/h 55% 0 mm 0.00 W/m2
06:32 6.4 °C -1.7 °C 1022.2 hPa East 9.7 km/h 30.6 km/h 56% 0 mm 0.00 W/m2
06:37 6.4 °C -1.7 °C 1022.2 hPa ESE 12.9 km/h 22.5 km/h 56% 0 mm 0.00 W/m2
06:42 6.4 °C -2.2 °C 1022.2 hPa East 14.5 km/h 20.9 km/h 54% 0 mm 0.00 W/m2
06:47 6.4 °C -1.7 °C 1022.2 hPa ESE 12.9 km/h 19.3 km/h 56% 0 mm 0.00 W/m2
06:52 6.4 °C -1.9 °C 1022.2 hPa Calm   27.4 km/h 55% 0 mm 0.00 W/m2
06:57 6.4 °C -1.7 °C 1022.2 hPa East 6.4 km/h 19.3 km/h 56% 0 mm 0.00 W/m2
07:02 6.4 °C -1.7 °C 1022.2 hPa Calm   22.5 km/h 56% 0 mm 0.00 W/m2
07:07 6.4 °C -1.7 °C 1022.2 hPa ESE 9.7 km/h 17.7 km/h 56% 0 mm 5.00 W/m2
07:12 6.3 °C -1.8 °C 1022.2 hPa ESE 12.9 km/h 20.9 km/h 56% 0 mm 5.00 W/m2
07:17 6.3 °C -1.8 °C 1022.2 hPa ESE 14.5 km/h 19.3 km/h 56% 0 mm 7.00 W/m2
07:22 6.3 °C -1.8 °C 1022.2 hPa ESE 8 km/h 29 km/h 56% 0 mm 9.00 W/m2
07:28 6.2 °C -2.2 °C 1022.2 hPa ESE 11.3 km/h 25.7 km/h 55% 0 mm 12.00 W/m2
07:33 6.2 °C -1.9 °C 1022.2 hPa ESE 11.3 km/h 29 km/h 56% 0 mm 18.00 W/m2
07:38 6.2 °C -2.2 °C 1022.2 hPa ESE 9.7 km/h 24.1 km/h 55% 0 mm 28.00 W/m2
07:43 6.2 °C -2.4 °C 1022.2 hPa ESE 17.7 km/h 29 km/h 54% 0 mm 37.00 W/m2
07:48 6.3 °C -2.1 °C 1022.2 hPa East 9.7 km/h 29 km/h 55% 0 mm 56.00 W/m2
07:53 6.3 °C -2.3 °C 1022.2 hPa East 8 km/h 24.1 km/h 54% 0 mm 63.00 W/m2
07:58 6.4 °C -1.9 °C 1022.2 hPa ESE 12.9 km/h 32.2 km/h 55% 0 mm 84.00 W/m2
08:03 6.5 °C -2.4 °C 1022.2 hPa ESE 29 km/h 29 km/h 53% 0 mm 98.00 W/m2
08:08 6.6 °C -2.1 °C 1022.2 hPa East 20.9 km/h 25.7 km/h 54% 0 mm 125.00 W/m2
08:13 6.7 °C -2.2 °C 1022.2 hPa ESE 17.7 km/h 24.1 km/h 53% 0 mm 149.00 W/m2
08:18 6.8 °C -1.8 °C 1022.2 hPa Calm   25.7 km/h 54% 0 mm 171.00 W/m2
08:23 6.9 °C -1.9 °C 1022.2 hPa SE 12.9 km/h 20.9 km/h 53% 0 mm 192.00 W/m2
08:28 7.1 °C -1.9 °C 1022.2 hPa East 8 km/h 25.7 km/h 53% 0 mm 213.00 W/m2
08:33 7.2 °C -2 °C 1022.2 hPa ESE 19.3 km/h 19.3 km/h 52% 0 mm 241.00 W/m2
08:38 7.3 °C -1.9 °C 1022.2 hPa ESE 14.5 km/h 22.5 km/h 52% 0 mm 260.00 W/m2
08:43 7.4 °C -1.5 °C 1022.2 hPa Calm   17.7 km/h 53% 0 mm 272.00 W/m2
08:48 7.6 °C -0.9 °C 1022.2 hPa Calm   20.9 km/h 55% 0 mm 294.00 W/m2
08:53 7.7 °C -1.1 °C 1022.2 hPa East 1.6 km/h 20.9 km/h 54% 0 mm 304.00 W/m2
08:58 7.8 °C -1.4 °C 1022.2 hPa East 8 km/h 19.3 km/h 52% 0 mm 339.00 W/m2
09:03 7.9 °C -1.3 °C 1022.2 hPa East 12.9 km/h 20.9 km/h 52% 0 mm 327.00 W/m2
09:08 8.1 °C -1.4 °C 1022.2 hPa ESE 6.4 km/h 19.3 km/h 51% 0 mm 359.00 W/m2
09:13 8.3 °C -1 °C 1022.6 hPa ESE 1.6 km/h 9.7 km/h 52% 0 mm 394.00 W/m2
09:19 8.4 °C -0.6 °C 1022.6 hPa ESE 6.4 km/h 14.5 km/h 53% 0 mm 403.00 W/m2
09:24 8.6 °C -0.7 °C 1022.6 hPa Calm   22.5 km/h 52% 0 mm 410.00 W/m2
09:29 8.8 °C -0.8 °C 1022.6 hPa Calm   3.2 km/h 51% 0 mm 392.00 W/m2
09:34 8.9 °C -0.1 °C 1022.6 hPa Calm   9.7 km/h 53% 0 mm 473.00 W/m2
09:39 9.1 °C -0.2 °C 1022.6 hPa Calm   6.4 km/h 52% 0 mm 496.00 W/m2
09:44 9.3 °C -0.1 °C 1022.6 hPa SE 8 km/h 8 km/h 52% 0 mm 471.00 W/m2
09:49 9.5 °C -0.1 °C 1022.6 hPa Calm   11.3 km/h 51% 0 mm 388.00 W/m2
09:54 9.8 °C -0.7 °C 1022.6 hPa ESE 1.6 km/h 11.3 km/h 48% 0 mm 496.00 W/m2
09:59 10 °C -0.5 °C 1022.6 hPa ESE 6.4 km/h 8 km/h 48% 0 mm 295.00 W/m2
10:04 10.2 °C -0.6 °C 1022.6 hPa Calm   8 km/h 47% 0 mm 373.00 W/m2
10:09 10.4 °C 0.4 °C 1022.6 hPa Calm   6.4 km/h 50% 0 mm 424.00 W/m2
10:14 10.6 °C 0.8 °C 1022.6 hPa SE 3.2 km/h 8 km/h 51% 0 mm 517.00 W/m2
10:19 10.7 °C 0.9 °C 1022.2 hPa Calm   6.4 km/h 51% 0 mm 552.00 W/m2
10:24 10.8 °C -0.4 °C 1022.2 hPa Calm   8 km/h 46% 0 mm 566.00 W/m2
10:29 11 °C -0.2 °C 1022.6 hPa SE 3.2 km/h 8 km/h 46% 0 mm 591.00 W/m2
10:34 11.2 °C -0.3 °C 1022.6 hPa SE 11.3 km/h 11.3 km/h 45% 0 mm 591.00 W/m2
10:39 11.4 °C -1 °C 1022.2 hPa ESE 3.2 km/h 6.4 km/h 42% 0 mm 610.00 W/m2
10:44 11.8 °C 0 °C 1022.2 hPa ESE 6.4 km/h 6.4 km/h 44% 0 mm 687.00 W/m2
10:49 12.2 °C -1.1 °C 1022.2 hPa SE 6.4 km/h 9.7 km/h 40% 0 mm 577.00 W/m2
10:54 12.4 °C -1.1 °C 1022.2 hPa Calm   6.4 km/h 39% 0 mm 578.00 W/m2
10:59 12.7 °C 0.2 °C 1022.2 hPa SSE 3.2 km/h 8 km/h 42% 0 mm 529.00 W/m2
11:04 12.9 °C -0.7 °C 1022.2 hPa Calm   6.4 km/h 39% 0 mm 606.00 W/m2
11:09 13.2 °C -0.1 °C 1022.2 hPa SSE 3.2 km/h 6.4 km/h 40% 0 mm 657.00 W/m2
11:14 13.3 °C 1.3 °C 1022.2 hPa Calm     44% 0 mm 670.00 W/m2
11:19 13.6 °C 0.6 °C 1022.2 hPa Calm   3.2 km/h 41% 0 mm 585.00 W/m2
11:25 13.7 °C 1.7 °C 1022.2 hPa Calm   9.7 km/h 44% 0 mm 561.00 W/m2
11:30 13.8 °C 1.5 °C 1022.2 hPa Calm   8 km/h 43% 0 mm 670.00 W/m2
11:35 14 °C 1.6 °C 1022.2 hPa South 1.6 km/h 3.2 km/h 43% 0 mm 705.00 W/m2
11:40 14.2 °C 1.1 °C 1021.9 hPa Calm   9.7 km/h 41% 0 mm 731.00 W/m2
11:45 14.3 °C 1.6 °C 1021.9 hPa SW 4.8 km/h 12.9 km/h 42% 0 mm 770.00 W/m2
11:50 14.6 °C 1.4 °C 1021.9 hPa SSW 3.2 km/h 4.8 km/h 41% 0 mm 745.00 W/m2
11:55 14.8 °C 0.2 °C 1021.6 hPa South 11.3 km/h 14.5 km/h 37% 0 mm 766.00 W/m2
12:00 15 °C 0.1 °C 1021.6 hPa SSW 9.7 km/h 12.9 km/h 36% 0 mm 773.00 W/m2
12:05 15.2 °C 0.2 °C 1021.6 hPa Calm   11.3 km/h 36% 0 mm 274.00 W/m2
12:10 15.4 °C 1.2 °C 1021.6 hPa South 17.7 km/h 17.7 km/h 38% 0 mm 315.00 W/m2
12:15 15.4 °C -0.3 °C 1021.6 hPa SSW 1.6 km/h 11.3 km/h 34% 0 mm 865.00 W/m2
12:20 15.6 °C 0.2 °C 1021.6 hPa SSW 1.6 km/h 11.3 km/h 35% 0 mm 629.00 W/m2
12:25 15.6 °C 0.2 °C 1021.6 hPa SSW 1.6 km/h 3.2 km/h 35% 0 mm 269.00 W/m2
12:30 15.7 °C -0.1 °C 1021.6 hPa Calm   1.6 km/h 34% 0 mm 657.00 W/m2
12:35 15.6 °C 0.2 °C 1021.2 hPa Calm   1.6 km/h 35% 0 mm 290.00 W/m2
12:40 15.5 °C 1.9 °C 1021.2 hPa Calm   1.6 km/h 40% 0 mm 626.00 W/m2
12:45 15.4 °C 1.5 °C 1021.2 hPa Calm   1.6 km/h 39% 0 mm 297.00 W/m2
12:50 15.2 °C 1 °C 1021.2 hPa Calm   1.6 km/h 38% 0 mm 251.00 W/m2
12:55 14.9 °C 1.1 °C 1021.2 hPa Calm   1.6 km/h 39% 0 mm 279.00 W/m2
13:00 14.7 °C 1.3 °C 1021.2 hPa Calm   1.6 km/h 40% 0 mm 413.00 W/m2
13:05 14.6 °C 1.1 °C 1021.2 hPa Calm   1.6 km/h 40% 0 mm 534.00 W/m2
13:10 14.4 °C 2.1 °C 1021.2 hPa Calm   1.6 km/h 43% 0 mm 624.00 W/m2
13:16 14.4 °C 1.3 °C 1020.9 hPa Calm     41% 0 mm 475.00 W/m2
13:21 14.3 °C 2.2 °C 1020.9 hPa Calm     44% 0 mm 378.00 W/m2
13:26 14.3 °C 2.2 °C 1020.9 hPa Calm     44% 0 mm 540.00 W/m2
13:31 14.4 °C 2 °C 1020.9 hPa Calm     43% 0 mm 510.00 W/m2
13:36 14.3 °C 1.9 °C 1020.9 hPa Calm     43% 0 mm 255.00 W/m2
13:41 14.4 °C 2 °C 1020.9 hPa Calm     43% 0 mm 311.00 W/m2
13:46 14.4 °C 2.6 °C 1020.9 hPa Calm     45% 0 mm 264.00 W/m2
13:51 14.3 °C 2.2 °C 1020.5 hPa Calm     44% 0 mm 260.00 W/m2
13:56 14.3 °C 1.9 °C 1020.5 hPa Calm     43% 0 mm 218.00 W/m2
14:01 14.2 °C 2.2 °C 1020.5 hPa Calm     44% 0 mm 223.00 W/m2
14:06 14.2 °C 2.4 °C 1020.5 hPa Calm     45% 0 mm 236.00 W/m2
14:11 14.1 °C 2.7 °C 1020.5 hPa Calm     46% 0 mm 234.00 W/m2
14:16 14.1 °C 2.9 °C 1020.2 hPa Calm     47% 0 mm 239.00 W/m2
14:21 14 °C 3.8 °C 1020.2 hPa Calm     50% 0 mm 250.00 W/m2
14:26 14 °C 4 °C 1020.2 hPa Calm     51% 0 mm 237.00 W/m2
14:31 13.9 °C 3.1 °C 1020.2 hPa Calm     48% 0 mm 220.00 W/m2
14:36 13.9 °C 4 °C 1020.2 hPa Calm     51% 0 mm 207.00 W/m2
14:41 14 °C 3.2 °C 1020.2 hPa Calm     48% 0 mm 204.00 W/m2
14:46 14 °C 2.9 °C 1020.2 hPa Calm     47% 0 mm 207.00 W/m2
14:51 14 °C 2.3 °C 1020.2 hPa Calm     45% 0 mm 206.00 W/m2
14:56 14 °C 1.9 °C 1020.2 hPa Calm     44% 0 mm 200.00 W/m2
15:01 14 °C 2.9 °C 1020.2 hPa Calm     47% 0 mm 204.00 W/m2
15:06 14 °C 2.9 °C 1019.9 hPa Calm     47% 0 mm 216.00 W/m2
15:11 14 °C 3.4 °C 1020.2 hPa Calm     49% 0 mm 204.00 W/m2
15:16 14 °C 4.6 °C 1019.9 hPa Calm     53% 0 mm 183.00 W/m2
15:21 14 °C 3.4 °C 1020.2 hPa Calm     49% 0 mm 167.00 W/m2
15:26 13.9 °C 4 °C 1020.2 hPa Calm     51% 0 mm 214.00 W/m2
15:31 13.9 °C 3.9 °C 1020.2 hPa Calm     51% 0 mm 188.00 W/m2
15:36 13.9 °C 3.7 °C 1019.9 hPa Calm     50% 0 mm 174.00 W/m2
15:41 13.8 °C 3.3 °C 1019.9 hPa Calm     49% 0 mm 179.00 W/m2
15:46 13.8 °C 3.6 °C 1019.9 hPa Calm     50% 0 mm 202.00 W/m2
15:51 13.7 °C 4.1 °C 1019.9 hPa Calm     52% 0 mm 151.00 W/m2
15:56 13.7 °C 3.2 °C 1019.9 hPa Calm     49% 0 mm 116.00 W/m2
16:01 13.6 °C 3.7 °C 1019.9 hPa Calm     51% 0 mm 102.00 W/m2
16:06 13.6 °C 3.9 °C 1019.9 hPa Calm     52% 0 mm 95.00 W/m2
16:11 13.4 °C 2.9 °C 1019.9 hPa Calm     49% 0 mm 104.00 W/m2
16:16 13.4 °C 4 °C 1019.9 hPa Calm     53% 0 mm 102.00 W/m2
16:21 13.3 °C 3.6 °C 1019.9 hPa Calm     52% 0 mm 100.00 W/m2
16:26 13.2 °C 4.4 °C 1019.9 hPa Calm     55% 0 mm 88.00 W/m2
16:31 13.1 °C 4 °C 1019.9 hPa Calm     54% 0 mm 81.00 W/m2
16:36 12.9 °C 4.6 °C 1019.9 hPa Calm     57% 0 mm 54.00 W/m2
16:41 12.8 °C 4 °C 1019.9 hPa Calm     55% 0 mm 40.00 W/m2
16:46 12.7 °C 3.9 °C 1019.5 hPa Calm     55% 0 mm 37.00 W/m2
16:51 12.6 °C 4.5 °C 1019.5 hPa Calm     58% 0 mm 33.00 W/m2
16:56 12.5 °C 5.2 °C 1019.5 hPa Calm     61% 0 mm 28.00 W/m2
17:01 12.3 °C 5.3 °C 1019.5 hPa Calm     62% 0 mm 21.00 W/m2
17:06 12.2 °C 5.1 °C 1019.5 hPa Calm     62% 0 mm 14.00 W/m2
17:11 12 °C 5.2 °C 1019.5 hPa Calm     63% 0 mm 9.00 W/m2
17:16 11.8 °C 5 °C 1019.5 hPa Calm     63% 0 mm 5.00 W/m2
17:21 11.6 °C 4.8 °C 1019.5 hPa Calm     63% 0 mm 0.00 W/m2
17:26 11.4 °C 4.4 °C 1019.5 hPa Calm   1.6 km/h 62% 0 mm 0.00 W/m2
17:31 11.2 °C 4.4 °C 1019.5 hPa Calm     63% 0 mm 0.00 W/m2
17:36 10.9 °C 4.2 °C 1019.5 hPa Calm     63% 0 mm 0.00 W/m2
17:41 10.8 °C 4.3 °C 1019.5 hPa Calm   1.6 km/h 64% 0 mm 0.00 W/m2
17:46 10.8 °C 4.4 °C 1019.5 hPa Calm     65% 0 mm 0.00 W/m2
17:51 10.7 °C 4.3 °C 1019.2 hPa SE 1.6 km/h 1.6 km/h 65% 0 mm 0.00 W/m2
17:56 10.6 °C 4.5 °C 1019.2 hPa Calm   1.6 km/h 66% 0 mm 0.00 W/m2
18:02 10.5 °C 4.4 °C 1019.5 hPa Calm   1.6 km/h 66% 0 mm 0.00 W/m2
18:07 10.4 °C 4.6 °C 1019.5 hPa Calm   1.6 km/h 67% 0 mm 0.00 W/m2
18:12 10.4 °C 4.6 °C 1019.5 hPa Calm   1.6 km/h 67% 0 mm 0.00 W/m2
18:17 10.3 °C 4.7 °C 1019.5 hPa Calm   1.6 km/h 68% 0 mm 0.00 W/m2
18:22 10.3 °C 4.8 °C 1019.2 hPa SE 1.6 km/h 1.6 km/h 69% 0 mm 0.00 W/m2
18:27 10.2 °C 4.6 °C 1019.2 hPa Calm   1.6 km/h 68% 0 mm 0.00 W/m2
18:32 10.2 °C 4.6 °C 1019.2 hPa SE 1.6 km/h 1.6 km/h 68% 0 mm 0.00 W/m2
18:37 10.2 °C 4.7 °C 1019.5 hPa Calm     69% 0 mm 0.00 W/m2
18:42 10.2 °C 4.7 °C 1019.5 hPa Calm     69% 0 mm 0.00 W/m2
18:47 10.1 °C 4.7 °C 1019.5 hPa Calm     69% 0 mm 0.00 W/m2
18:52 10 °C 4.6 °C 1019.5 hPa Calm     69% 0 mm 0.00 W/m2
18:57 9.9 °C 4.7 °C 1019.2 hPa Calm     70% 0 mm 0.00 W/m2
19:02 9.9 °C 4.9 °C 1019.2 hPa Calm     71% 0 mm 0.00 W/m2
19:07 9.8 °C 4.6 °C 1019.2 hPa Calm     70% 0 mm 0.00 W/m2
19:12 9.7 °C 4.5 °C 1019.2 hPa Calm     70% 0 mm 0.00 W/m2
19:17 9.7 °C 4.4 °C 1019.2 hPa Calm     70% 0 mm 0.00 W/m2
19:22 9.6 °C 4.6 °C 1019.2 hPa Calm     71% 0 mm 0.00 W/m2
19:27 9.4 °C 4.3 °C 1019.5 hPa Calm     70% 0 mm 0.00 W/m2
19:32 9.4 °C 4.2 °C 1019.2 hPa Calm     70% 0 mm 0.00 W/m2
19:37 9.3 °C 4.2 °C 1019.2 hPa Calm     70% 0 mm 0.00 W/m2
19:42 9.3 °C 4.1 °C 1019.2 hPa Calm     70% 0 mm 0.00 W/m2
19:47 9.3 °C 4.1 °C 1019.2 hPa Calm     70% 0 mm 0.00 W/m2
19:52 9.3 °C 4.1 °C 1019.2 hPa Calm     70% 0 mm 0.00 W/m2
19:57 9.3 °C 4.1 °C 1019.2 hPa Calm     70% 0 mm 0.00 W/m2
20:02 9.3 °C 4.1 °C 1019.2 hPa SE 1.6 km/h 1.6 km/h 70% 0 mm 0.00 W/m2
20:07 9.2 °C 4.1 °C 1019.2 hPa ESE 1.6 km/h 1.6 km/h 70% 0 mm 0.00 W/m2
20:12 9.2 °C 3.6 °C 1019.2 hPa ESE 1.6 km/h 1.6 km/h 68% 0 mm 0.00 W/m2
20:18 9.1 °C 3.5 °C 1019.5 hPa Calm   1.6 km/h 68% 0 mm 0.00 W/m2
20:23 9.1 °C 3.4 °C 1019.5 hPa Calm   1.6 km/h 68% 0 mm 0.00 W/m2
20:28 9.1 °C 3.4 °C 1019.5 hPa Calm   1.6 km/h 68% 0 mm 0.00 W/m2
20:33 9 °C 3.4 °C 1019.5 hPa Calm   1.6 km/h 68% 0 mm 0.00 W/m2
20:38 9 °C 3.2 °C 1019.5 hPa Calm   1.6 km/h 67% 0 mm 0.00 W/m2
20:43 8.9 °C 3.3 °C 1019.5 hPa Calm   3.2 km/h 68% 0 mm 0.00 W/m2
20:48 8.9 °C 3.1 °C 1019.5 hPa ESE 1.6 km/h 1.6 km/h 67% 0 mm 0.00 W/m2
20:53 8.8 °C 2.8 °C 1019.5 hPa Calm   1.6 km/h 66% 0 mm 0.00 W/m2
20:58 8.8 °C 2.8 °C 1019.5 hPa Calm   3.2 km/h 66% 0 mm 0.00 W/m2
21:03 8.7 °C 2.5 °C 1019.9 hPa ESE 1.6 km/h 6.4 km/h 65% 0 mm 0.00 W/m2
21:08 8.7 °C 2.2 °C 1019.9 hPa Calm   6.4 km/h 64% 0 mm 0.00 W/m2
21:13 8.7 °C 2.4 °C 1019.9 hPa East 1.6 km/h 6.4 km/h 65% 0 mm 0.00 W/m2
21:18 8.6 °C 2.1 °C 1019.9 hPa East 19.3 km/h 19.3 km/h 64% 0 mm 0.00 W/m2
21:23 8.5 °C 1.9 °C 1019.9 hPa East 19.3 km/h 22.5 km/h 63% 0 mm 0.00 W/m2
21:28 8.4 °C 1.8 °C 1019.9 hPa Calm   19.3 km/h 63% 0 mm 0.00 W/m2
21:33 8.4 °C 1.8 °C 1019.9 hPa Calm   11.3 km/h 63% 0 mm 0.00 W/m2
21:38 8.3 °C 1.7 °C 1019.9 hPa East 3.2 km/h 9.7 km/h 63% 0 mm 0.00 W/m2
21:43 8.3 °C 1.7 °C 1019.5 hPa Calm   25.7 km/h 63% 0 mm 0.00 W/m2
21:48 8.2 °C 1.6 °C 1019.5 hPa ESE 12.9 km/h 19.3 km/h 63% 0 mm 0.00 W/m2
21:53 8.1 °C 1.1 °C 1019.5 hPa SE 6.4 km/h 25.7 km/h 61% 0 mm 0.00 W/m2
21:58 8.1 °C 1 °C 1019.5 hPa East 12.9 km/h 19.3 km/h 61% 0 mm 0.00 W/m2
22:03 8.1 °C 1 °C 1019.2 hPa ESE 3.2 km/h 25.7 km/h 61% 0 mm 0.00 W/m2
22:08 8 °C 0.7 °C 1019.2 hPa Calm   22.5 km/h 60% 0 mm 0.00 W/m2
22:13 8.1 °C 1 °C 1019.5 hPa Calm   24.1 km/h 61% 0 mm 0.00 W/m2
22:18 8 °C 0.5 °C 1019.5 hPa ESE 9.7 km/h 22.5 km/h 59% 0 mm 0.00 W/m2
22:23 8 °C 0.5 °C 1019.5 hPa ESE 12.9 km/h 19.3 km/h 59% 0 mm 0.00 W/m2
22:28 8.1 °C 0.3 °C 1019.5 hPa ESE 8 km/h 22.5 km/h 58% 0 mm 0.00 W/m2
22:33 8.1 °C 0.1 °C 1019.5 hPa Calm   24.1 km/h 57% 0 mm 0.00 W/m2
22:38 8.1 °C 0.3 °C 1019.5 hPa ESE 17.7 km/h 20.9 km/h 58% 0 mm 0.00 W/m2
22:43 8 °C 0 °C 1019.5 hPa Calm   19.3 km/h 57% 0 mm 0.00 W/m2
22:48 8 °C 0.5 °C 1019.5 hPa Calm   14.5 km/h 59% 0 mm 0.00 W/m2
22:53 7.9 °C 0.2 °C 1019.5 hPa ESE 12.9 km/h 12.9 km/h 58% 0 mm 0.00 W/m2
22:58 7.9 °C 0.2 °C 1019.5 hPa East 1.6 km/h 12.9 km/h 58% 0 mm 0.00 W/m2
23:03 7.9 °C 0.4 °C 1019.9 hPa Calm   12.9 km/h 59% 0 mm 0.00 W/m2
23:08 7.9 °C 0.4 °C 1019.9 hPa Calm   3.2 km/h 59% 0 mm 0.00 W/m2
23:13 7.8 °C 0.6 °C 1019.9 hPa Calm   1.6 km/h 60% 0 mm 0.00 W/m2
23:18 7.8 °C 0.5 °C 1019.5 hPa ESE 1.6 km/h 1.6 km/h 60% 0 mm 0.00 W/m2
23:23 7.7 °C 0.4 °C 1019.5 hPa ESE 1.6 km/h 1.6 km/h 60% 0 mm 0.00 W/m2
23:29 7.7 °C 0.4 °C 1019.5 hPa Calm   8 km/h 60% 0 mm 0.00 W/m2
23:34 7.6 °C 0.3 °C 1019.5 hPa Calm   14.5 km/h 60% 0 mm 0.00 W/m2
23:39 7.6 °C 0.7 °C 1019.5 hPa Calm   11.3 km/h 62% 0 mm 0.00 W/m2
23:44 7.5 °C 0.4 °C 1019.5 hPa Calm   14.5 km/h 61% 0 mm 0.00 W/m2
23:49 7.5 °C 0.7 °C 1019.5 hPa Calm   3.2 km/h 62% 0 mm 0.00 W/m2
23:54 7.4 °C 0.4 °C 1019.2 hPa Calm   24.1 km/h 61% 0 mm 0.00 W/m2
23:59 7.4 °C 0.4 °C 1019.2 hPa Calm   14.5 km/h 61% 0 mm 0.00 W/m2
Foresthill Weather
 WU-history PHP script courtesy of   Juneau County Weather.
powered by Cumulus v1.9.3 (1059)
Ambient Weather VWS v14.00
Top Contact Website Map Copyright © 2007 - 2018 Foresthillweather.com Never base important decisions on this or any weather information obtained from the Internet